createdAt,value
2019-03-16T00:02:01.160Z,6.53
2019-03-16T00:04:29.978Z,8.27
2019-03-16T00:06:58.797Z,10.90
2019-03-16T00:09:27.671Z,6.77
2019-03-16T00:11:56.546Z,12.20
2019-03-16T00:14:25.420Z,4.87
2019-03-16T00:16:54.305Z,6.87
2019-03-16T00:19:23.265Z,11.37
2019-03-16T00:21:52.095Z,6.50
2019-03-16T00:24:21.037Z,5.97
2019-03-16T00:26:49.893Z,5.87
2019-03-16T00:29:18.832Z,5.73
2019-03-16T00:31:47.630Z,8.97
2019-03-16T00:34:16.450Z,6.00
2019-03-16T00:36:45.428Z,8.77
2019-03-16T00:39:14.372Z,9.37
2019-03-16T00:41:43.188Z,8.53
2019-03-16T00:44:12.148Z,7.27
2019-03-16T00:46:40.973Z,5.60
2019-03-16T00:49:09.817Z,6.17
2019-03-16T00:51:38.695Z,9.50
2019-03-16T00:54:07.577Z,5.10
2019-03-16T00:56:36.449Z,7.63
2019-03-16T00:59:05.317Z,8.53
2019-03-16T01:01:34.257Z,9.03
2019-03-16T01:04:03.183Z,7.27
2019-03-16T01:06:32.056Z,10.67
2019-03-16T01:09:01.086Z,8.77
2019-03-16T01:11:29.905Z,6.17
2019-03-16T01:13:58.814Z,10.90
2019-03-16T01:16:27.660Z,8.23
2019-03-16T01:18:56.566Z,10.40
2019-03-16T01:21:25.384Z,13.10
2019-03-16T01:23:54.428Z,49.17
2019-03-16T01:26:23.275Z,34.20
2019-03-16T01:28:52.095Z,45.80
2019-03-16T01:31:20.929Z,23.83
2019-03-16T01:33:49.869Z,30.27
2019-03-16T01:36:18.725Z,16.37
2019-03-16T01:38:47.657Z,16.83
2019-03-16T01:41:16.488Z,13.77
2019-03-16T01:43:45.321Z,12.03
2019-03-16T01:46:14.250Z,9.63
2019-03-16T01:48:43.187Z,9.70
2019-03-16T01:51:13.265Z,5.87
2019-03-16T01:53:42.089Z,8.13
2019-03-16T01:56:10.950Z,6.40
2019-03-16T01:58:39.872Z,9.80
2019-03-16T02:01:09.043Z,6.17
2019-03-16T02:03:37.997Z,9.70
2019-03-16T02:06:06.918Z,6.70
2019-03-16T02:08:35.758Z,8.60
2019-03-16T02:11:04.655Z,8.77
2019-03-16T02:13:33.517Z,8.60
2019-03-16T02:16:10.874Z,7.53
2019-03-16T02:18:32.927Z,5.07
2019-03-16T02:21:01.781Z,7.70
2019-03-16T02:23:30.654Z,4.77
2019-03-16T02:25:59.488Z,5.70
2019-03-16T02:28:28.360Z,6.53
2019-03-16T02:30:57.249Z,11.77
2019-03-16T02:33:26.116Z,6.97
2019-03-16T02:35:54.927Z,11.53
2019-03-16T02:38:23.746Z,10.00
2019-03-16T02:40:52.585Z,8.90
2019-03-16T02:43:21.478Z,6.40
2019-03-16T02:45:50.291Z,6.77
2019-03-16T02:48:19.105Z,11.60
2019-03-16T02:50:48.050Z,4.57
2019-03-16T02:53:16.880Z,9.10
2019-03-16T02:55:45.919Z,5.00
2019-03-16T02:58:14.857Z,5.90
2019-03-16T03:00:43.728Z,5.07
2019-03-16T03:03:28.070Z,6.00
2019-03-16T03:05:43.248Z,6.90
2019-03-16T03:08:12.111Z,8.13
2019-03-16T03:10:40.997Z,10.40
2019-03-16T03:13:13.342Z,7.83
2019-03-16T03:15:40.733Z,8.90
2019-03-16T03:18:09.614Z,9.13
2019-03-16T03:20:38.508Z,8.30
2019-03-16T03:23:07.473Z,8.47
2019-03-16T03:25:36.400Z,7.23
2019-03-16T03:28:05.361Z,8.90
2019-03-16T03:30:34.362Z,11.07
2019-03-16T03:33:03.185Z,9.73
2019-03-16T03:35:32.043Z,6.90
2019-03-16T03:38:00.907Z,12.00
2019-03-16T03:40:29.720Z,6.97
2019-03-16T03:42:58.673Z,8.67
2019-03-16T03:45:27.640Z,9.07
2019-03-16T03:47:56.529Z,6.00
2019-03-16T03:50:25.421Z,9.73
2019-03-16T03:52:54.269Z,10.07
2019-03-16T03:55:23.299Z,12.73
2019-03-16T03:57:52.198Z,7.10
2019-03-16T04:00:21.156Z,7.53
2019-03-16T04:02:50.101Z,6.67
2019-03-16T04:05:19.082Z,5.90
2019-03-16T04:07:47.997Z,13.67
2019-03-16T04:10:16.998Z,11.53
2019-03-16T04:12:45.928Z,6.90
2019-03-16T04:15:15.102Z,9.77
2019-03-16T04:17:44.041Z,5.40
2019-03-16T04:20:13.192Z,10.23
2019-03-16T04:22:42.152Z,5.47
2019-03-16T04:25:11.298Z,14.17
2019-03-16T04:27:40.219Z,9.03
2019-03-16T04:30:09.171Z,5.40
2019-03-16T04:32:38.194Z,7.57
2019-03-16T04:35:07.067Z,7.00
2019-03-16T04:37:35.953Z,8.93
2019-03-16T04:40:05.224Z,5.97
2019-03-16T04:42:34.091Z,5.07
2019-03-16T04:45:02.884Z,4.37
2019-03-16T04:47:31.728Z,12.13
2019-03-16T04:50:00.592Z,5.90
2019-03-16T04:52:29.450Z,7.20
2019-03-16T04:54:58.348Z,7.60
2019-03-16T04:57:27.313Z,10.07
2019-03-16T04:59:56.213Z,6.97
2019-03-16T05:02:25.109Z,6.77
2019-03-16T05:05:06.078Z,7.83
2019-03-16T05:07:46.899Z,10.97
2019-03-16T05:10:27.729Z,5.50
2019-03-16T05:13:08.980Z,9.73
2019-03-16T05:15:51.066Z,7.90
2019-03-16T05:18:32.585Z,15.63
2019-03-16T05:21:13.552Z,12.33
2019-03-16T05:23:54.409Z,7.20
2019-03-16T05:26:35.037Z,9.33
2019-03-16T05:29:15.740Z,6.43
2019-03-16T05:31:56.625Z,7.20
2019-03-16T05:34:37.575Z,12.07
2019-03-16T05:37:18.451Z,9.70
2019-03-16T05:39:59.238Z,6.57
2019-03-16T05:42:40.141Z,10.27
2019-03-16T05:45:20.944Z,7.73
2019-03-16T05:48:01.777Z,8.73
2019-03-16T05:50:43.095Z,10.23
2019-03-16T05:53:23.602Z,9.37
2019-03-16T05:56:04.459Z,6.87
2019-03-16T05:58:45.524Z,8.73
2019-03-16T06:01:26.627Z,11.97
2019-03-16T06:04:07.453Z,10.93
2019-03-16T06:06:48.272Z,8.37
2019-03-16T06:09:29.165Z,7.33
2019-03-16T06:12:10.169Z,5.57
2019-03-16T06:14:50.916Z,6.87
2019-03-16T06:17:31.573Z,7.40
2019-03-16T06:20:12.308Z,8.27
2019-03-16T06:22:41.128Z,14.63
2019-03-16T06:25:29.254Z,6.67
2019-03-16T06:28:17.298Z,6.23
2019-03-16T06:31:05.317Z,8.13
2019-03-16T06:33:53.394Z,6.13
2019-03-16T06:36:41.445Z,10.67
2019-03-16T06:39:29.517Z,10.13
2019-03-16T06:42:17.593Z,10.10
2019-03-16T06:45:05.216Z,6.87
2019-03-16T06:47:54.736Z,9.37
2019-03-16T06:50:43.116Z,7.87
2019-03-16T06:53:31.163Z,12.03
2019-03-16T06:56:19.292Z,15.17
2019-03-16T06:59:07.383Z,7.60
2019-03-16T07:01:55.494Z,5.83
2019-03-16T07:04:43.615Z,6.50
2019-03-16T07:07:24.233Z,9.93
2019-03-16T07:10:04.845Z,10.20
2019-03-16T07:12:45.643Z,9.43
2019-03-16T07:15:26.433Z,13.53
2019-03-16T07:18:08.737Z,7.67
2019-03-16T07:20:49.263Z,11.03
2019-03-16T07:23:31.633Z,9.67
2019-03-16T07:26:15.070Z,12.53
2019-03-16T07:28:55.243Z,13.27
2019-03-16T07:31:38.204Z,9.77
2019-03-16T07:34:18.823Z,7.57
2019-03-16T07:36:59.555Z,6.40
2019-03-16T07:39:28.794Z,9.03
2019-03-16T07:42:16.932Z,7.50
2019-03-16T07:45:08.601Z,8.23
2019-03-16T07:47:55.126Z,9.90
2019-03-16T07:50:43.308Z,5.93
2019-03-16T07:53:50.971Z,9.33
2019-03-16T07:57:16.142Z,7.80
2019-03-16T08:03:05.079Z,11.57
2019-03-16T08:05:53.170Z,7.83
2019-03-16T08:08:34.268Z,6.37
2019-03-16T08:11:15.228Z,8.67
2019-03-16T08:13:55.991Z,15.57
2019-03-16T08:19:45.158Z,8.17
2019-03-16T08:22:25.878Z,11.97
2019-03-16T08:25:07.331Z,17.70
2019-03-16T08:27:53.978Z,14.30
2019-03-16T08:30:18.987Z,13.37
2019-03-16T08:32:48.042Z,7.17
2019-03-16T08:35:36.188Z,10.17
2019-03-16T08:38:24.323Z,14.90
2019-03-16T08:41:12.474Z,9.53
2019-03-16T08:43:41.522Z,7.87
2019-03-16T08:46:29.733Z,7.73
2019-03-16T08:49:17.930Z,15.10
2019-03-16T08:52:06.113Z,10.77
2019-03-16T08:54:54.407Z,13.50
2019-03-16T08:57:42.472Z,8.77
2019-03-16T09:00:30.654Z,10.17
2019-03-16T09:03:43.583Z,8.60
2019-03-16T09:06:27.950Z,12.33
2019-03-16T09:09:16.114Z,22.67
2019-03-16T09:11:58.298Z,5.90
2019-03-16T09:14:39.466Z,14.67
2019-03-16T09:17:20.382Z,8.90
2019-03-16T09:20:03.815Z,11.23
2019-03-16T09:22:44.684Z,10.67
2019-03-16T09:25:25.298Z,11.97
2019-03-16T09:28:17.816Z,6.75
2019-03-16T09:30:48.782Z,8.80
2019-03-16T09:33:28.181Z,19.07
2019-03-16T09:36:16.389Z,13.00
2019-03-16T09:39:06.297Z,16.30
2019-03-16T09:41:55.119Z,10.37
2019-03-16T09:44:33.860Z,10.30
2019-03-16T09:47:22.453Z,7.37
2019-03-16T09:50:10.926Z,6.90
2019-03-16T09:52:51.961Z,6.80
2019-03-16T09:55:35.037Z,12.33
2019-03-16T09:58:15.329Z,9.83
2019-03-16T10:00:56.013Z,7.20
2019-03-16T10:03:36.772Z,8.77
2019-03-16T10:06:17.552Z,12.03
2019-03-16T10:08:58.358Z,7.97
2019-03-16T10:11:38.911Z,7.83
2019-03-16T10:14:21.414Z,10.00
2019-03-16T10:17:03.404Z,11.67
2019-03-16T10:19:44.161Z,24.43
2019-03-16T10:22:13.162Z,13.57
2019-03-16T10:25:01.280Z,19.80
2019-03-16T10:27:49.427Z,12.53
2019-03-16T10:30:37.585Z,8.00
2019-03-16T10:33:25.662Z,8.77
2019-03-16T10:36:13.781Z,6.37
2019-03-16T10:39:01.845Z,13.10
2019-03-16T10:41:49.982Z,10.27
2019-03-16T10:44:38.115Z,13.00
2019-03-16T10:47:07.502Z,11.10
2019-03-16T10:49:55.574Z,10.60
2019-03-16T10:52:43.626Z,12.33
2019-03-16T10:55:31.349Z,10.83
2019-03-16T10:58:19.547Z,15.67
2019-03-16T11:01:07.829Z,12.20
2019-03-16T11:03:55.936Z,16.73
2019-03-16T11:06:44.053Z,42.00
2019-03-16T11:09:32.252Z,97.33
2019-03-16T11:12:20.374Z,53.97
2019-03-16T11:15:01.246Z,84.90
2019-03-16T11:17:41.721Z,34.70
2019-03-16T11:20:22.949Z,47.27
2019-03-16T11:23:03.436Z,47.70
2019-03-16T11:25:44.151Z,55.73
2019-03-16T11:28:24.602Z,34.63
2019-03-16T11:31:05.328Z,50.80
2019-03-16T11:33:48.210Z,39.17
2019-03-16T11:36:28.806Z,49.63
2019-03-16T11:39:10.733Z,29.52
2019-03-16T11:41:52.041Z,32.07
2019-03-16T11:44:33.400Z,35.13
2019-03-16T11:47:14.212Z,44.60
2019-03-16T11:49:43.165Z,35.95
2019-03-16T11:52:43.503Z,14.10
2019-03-16T11:55:21.165Z,13.00
2019-03-16T11:58:09.314Z,17.17
2019-03-16T12:00:57.495Z,24.17
2019-03-16T12:03:45.670Z,16.10
2019-03-16T12:06:33.783Z,18.83
2019-03-16T12:09:22.098Z,20.17
2019-03-16T12:12:10.385Z,18.63
2019-03-16T12:14:51.683Z,22.50
2019-03-16T12:17:32.767Z,26.37
2019-03-16T12:20:13.560Z,18.23
2019-03-16T12:22:54.594Z,17.47
2019-03-16T12:25:35.500Z,15.70
2019-03-16T12:28:16.293Z,16.03
2019-03-16T12:30:57.104Z,17.37
2019-03-16T12:33:37.963Z,17.83
2019-03-16T12:36:18.809Z,18.47
2019-03-16T12:38:59.502Z,24.43
2019-03-16T12:41:40.372Z,17.97
2019-03-16T12:46:57.502Z,30.53
2019-03-16T12:49:48.789Z,26.90
2019-03-16T12:52:37.019Z,14.60
2019-03-16T12:55:25.252Z,16.57
2019-03-16T12:58:13.436Z,21.30
2019-03-16T13:00:42.434Z,18.53
2019-03-16T13:03:30.610Z,16.53
2019-03-16T13:06:19.253Z,11.03
2019-03-16T13:09:08.757Z,23.60
2019-03-16T13:11:56.805Z,15.60
2019-03-16T13:17:36.746Z,16.10
2019-03-16T13:20:18.080Z,10.60
2019-03-16T13:22:58.814Z,13.57
2019-03-16T13:25:39.514Z,11.37
2019-03-16T13:28:26.979Z,12.17
2019-03-16T13:31:08.395Z,8.50
2019-03-16T13:33:49.939Z,11.23
2019-03-16T13:36:30.368Z,20.53
2019-03-16T13:39:11.355Z,11.30
2019-03-16T13:41:53.629Z,16.53
2019-03-16T13:44:34.704Z,15.60
2019-03-16T13:47:15.892Z,12.27
2019-03-16T13:49:56.348Z,12.10
2019-03-16T13:52:37.165Z,10.53
2019-03-16T13:55:18.331Z,12.43
2019-03-16T13:57:58.897Z,13.57
2019-03-16T14:00:39.580Z,14.73
2019-03-16T14:03:20.664Z,12.13
2019-03-16T14:06:04.288Z,15.77
2019-03-16T14:08:44.883Z,14.70
2019-03-16T14:11:25.322Z,12.20
2019-03-16T14:14:06.156Z,11.10
2019-03-16T14:16:46.782Z,8.33
2019-03-16T14:19:27.546Z,8.43
2019-03-16T14:22:08.259Z,7.87
2019-03-16T14:24:49.708Z,7.73
2019-03-16T14:27:31.128Z,5.70
2019-03-16T14:30:23.919Z,6.30
2019-03-16T14:32:54.234Z,7.27
2019-03-16T14:35:34.906Z,5.00
2019-03-16T14:38:15.707Z,4.23
2019-03-16T14:40:56.597Z,10.80
2019-03-16T14:43:37.334Z,19.57
2019-03-16T14:46:18.217Z,6.10
2019-03-16T14:48:59.033Z,8.57
2019-03-16T14:51:39.535Z,18.97
2019-03-16T14:54:20.771Z,9.97
2019-03-16T14:57:02.211Z,11.67
2019-03-16T14:59:42.853Z,16.03
2019-03-16T15:02:25.294Z,15.97
2019-03-16T15:05:06.017Z,6.20
2019-03-16T15:07:49.532Z,3.37
2019-03-16T15:10:29.422Z,3.03
2019-03-16T15:13:10.057Z,4.50
2019-03-16T15:15:50.958Z,6.73
2019-03-16T15:18:32.154Z,3.13
2019-03-16T15:21:13.337Z,2.00
2019-03-16T15:23:55.419Z,2.60
2019-03-16T15:32:50.696Z,2.47
2019-03-16T15:35:31.593Z,3.03
2019-03-16T15:38:12.474Z,2.87
2019-03-16T15:40:54.048Z,2.58
2019-03-16T15:43:22.998Z,1.60
2019-03-16T15:46:11.121Z,2.60
2019-03-16T15:48:59.282Z,2.57
2019-03-16T15:51:47.509Z,2.10
2019-03-16T15:54:35.760Z,4.67
2019-03-16T16:00:37.496Z,2.80
2019-03-16T16:03:09.094Z,2.17
2019-03-16T16:05:56.633Z,2.87
2019-03-16T16:08:44.718Z,3.70
2019-03-16T16:11:33.341Z,2.00
2019-03-16T16:14:02.463Z,4.15
2019-03-16T16:16:52.190Z,2.10
2019-03-16T16:19:40.464Z,1.90
2019-03-16T16:25:36.075Z,3.27
2019-03-16T16:28:24.167Z,2.67
2019-03-16T16:31:35.074Z,3.03
2019-03-16T16:34:42.724Z,6.77
2019-03-16T16:37:31.260Z,2.33
2019-03-16T16:40:19.361Z,4.20
2019-03-16T16:43:07.551Z,4.10
2019-03-16T16:45:55.744Z,8.73
2019-03-16T16:49:03.343Z,6.57
2019-03-16T16:51:53.548Z,8.97
2019-03-16T16:54:41.721Z,8.97
2019-03-16T16:57:49.113Z,11.30
2019-03-16T17:00:37.302Z,4.73
2019-03-16T17:03:25.342Z,11.27
2019-03-16T17:06:13.582Z,6.93
2019-03-16T17:08:55.166Z,11.87
2019-03-16T17:11:33.083Z,4.90
2019-03-16T17:14:21.278Z,4.47
2019-03-16T17:17:09.436Z,8.63
2019-03-16T17:22:57.255Z,5.83
2019-03-16T17:28:19.987Z,5.00
2019-03-16T17:31:10.192Z,6.47
2019-03-16T17:37:08.936Z,6.77
2019-03-16T17:39:57.124Z,11.03
2019-03-16T17:42:45.252Z,8.27
2019-03-16T17:45:33.354Z,4.23
2019-03-16T17:48:21.550Z,7.20
2019-03-16T17:51:29.841Z,9.80
2019-03-16T17:54:18.348Z,4.77
2019-03-16T17:57:06.519Z,6.07
2019-03-16T17:59:54.622Z,4.40
2019-03-16T18:02:51.335Z,7.80
2019-03-16T18:05:33.016Z,5.30
2019-03-16T18:08:21.301Z,2.63
2019-03-16T18:11:09.509Z,3.57
2019-03-16T18:13:57.788Z,11.37
2019-03-16T18:16:58.551Z,4.73
2019-03-16T18:22:31.503Z,5.70
2019-03-16T18:25:12.913Z,4.60
2019-03-16T18:28:21.653Z,12.00
2019-03-16T18:31:09.860Z,14.00
2019-03-16T18:33:58.117Z,5.00
2019-03-16T18:36:46.268Z,5.73
2019-03-16T18:39:34.501Z,3.57
2019-03-16T18:42:22.766Z,3.50
2019-03-16T18:45:11.905Z,5.23
2019-03-16T18:48:00.097Z,5.23
2019-03-16T18:50:48.270Z,2.97
2019-03-16T18:53:36.406Z,3.30
2019-03-16T18:56:24.493Z,3.13
2019-03-16T18:59:12.614Z,4.50
2019-03-16T19:02:00.817Z,4.20
2019-03-16T19:04:48.939Z,2.90
2019-03-16T19:07:37.070Z,3.03
2019-03-16T19:10:25.202Z,5.80
2019-03-16T19:13:13.296Z,5.90
2019-03-16T19:16:01.361Z,8.70
2019-03-16T19:18:49.470Z,4.30
2019-03-16T19:21:18.379Z,7.63
2019-03-16T19:23:59.734Z,7.57
2019-03-16T19:26:41.058Z,9.17
2019-03-16T19:29:22.008Z,3.90
2019-03-16T19:32:03.050Z,5.40
2019-03-16T19:34:44.249Z,7.33
2019-03-16T19:37:13.308Z,6.30
2019-03-16T19:40:01.446Z,6.00
2019-03-16T19:42:30.493Z,6.47
2019-03-16T19:44:59.517Z,6.00
2019-03-16T19:47:30.513Z,3.90
2019-03-16T19:49:59.664Z,8.53
2019-03-16T19:52:28.515Z,4.33
2019-03-16T19:54:57.694Z,6.03
2019-03-16T19:57:26.654Z,4.43
2019-03-16T19:59:55.587Z,5.40
2019-03-16T20:02:24.397Z,7.23
2019-03-16T20:04:53.447Z,6.70
2019-03-16T20:07:23.174Z,5.57
2019-03-16T20:09:52.221Z,5.53
2019-03-16T20:12:23.379Z,4.83
2019-03-16T20:14:52.347Z,7.50
2019-03-16T20:17:21.317Z,12.40
2019-03-16T20:19:50.249Z,17.27
2019-03-16T20:22:19.050Z,8.53
2019-03-16T20:24:51.344Z,16.30
2019-03-16T20:27:23.133Z,11.90
2019-03-16T20:29:52.161Z,8.37
2019-03-16T20:32:20.989Z,5.77
2019-03-16T20:34:52.124Z,7.80
2019-03-16T20:37:21.065Z,4.77
2019-03-16T20:39:49.910Z,4.77
2019-03-16T20:42:18.745Z,4.53
2019-03-16T20:44:49.326Z,5.13
2019-03-16T20:47:18.326Z,6.13
2019-03-16T20:49:47.232Z,5.27
2019-03-16T20:52:16.100Z,8.20
2019-03-16T20:54:45.001Z,6.80
2019-03-16T20:57:14.003Z,7.37
2019-03-16T20:59:42.937Z,6.77
2019-03-16T21:02:11.923Z,9.93
2019-03-16T21:04:40.911Z,8.57
2019-03-16T21:07:09.827Z,14.03
2019-03-16T21:09:38.762Z,12.13
2019-03-16T21:12:07.650Z,9.63
2019-03-16T21:14:36.606Z,7.17
2019-03-16T21:17:05.694Z,9.13
2019-03-16T21:19:34.590Z,10.13
2019-03-16T21:22:03.479Z,7.03
2019-03-16T21:24:32.456Z,7.80
2019-03-16T21:27:01.335Z,7.80
2019-03-16T21:29:30.367Z,9.03
2019-03-16T21:31:59.292Z,8.03
2019-03-16T21:34:28.339Z,7.83
2019-03-16T21:36:57.247Z,10.23
2019-03-16T21:39:26.234Z,12.27
2019-03-16T21:41:55.138Z,11.60
2019-03-16T21:44:24.017Z,10.80
2019-03-16T21:46:54.051Z,16.13
2019-03-16T21:49:23.065Z,13.73
2019-03-16T21:51:52.060Z,13.00
2019-03-16T21:54:23.156Z,29.17
2019-03-16T21:56:52.277Z,36.17
2019-03-16T21:59:21.197Z,65.57
2019-03-16T22:01:50.162Z,12.07
2019-03-16T22:04:19.053Z,19.47
2019-03-16T22:06:47.989Z,22.00
2019-03-16T22:09:16.810Z,45.13
2019-03-16T22:11:45.721Z,24.60
2019-03-16T22:14:14.547Z,19.30
2019-03-16T22:16:43.431Z,30.07
2019-03-16T22:19:12.271Z,36.13
2019-03-16T22:21:41.944Z,9.37
2019-03-16T22:24:10.768Z,17.70
2019-03-16T22:26:39.821Z,16.87
2019-03-16T22:29:08.724Z,20.53
2019-03-16T22:31:37.597Z,11.93
2019-03-16T22:34:06.457Z,7.60
2019-03-16T22:36:35.285Z,21.53
2019-03-16T22:39:07.014Z,11.83
2019-03-16T22:41:35.973Z,13.43
2019-03-16T22:44:04.984Z,23.10
2019-03-16T22:46:33.875Z,13.20
2019-03-16T22:49:02.723Z,22.27
2019-03-16T22:51:31.692Z,18.80
2019-03-16T22:54:01.785Z,16.27
2019-03-16T22:56:30.618Z,13.97
2019-03-16T22:58:59.568Z,20.23
2019-03-16T23:01:28.564Z,23.13
2019-03-16T23:04:06.200Z,11.07
2019-03-16T23:06:28.075Z,9.70
2019-03-16T23:08:56.969Z,12.90
2019-03-16T23:11:25.889Z,11.23
2019-03-16T23:13:54.745Z,18.10
2019-03-16T23:16:23.720Z,14.27
2019-03-16T23:18:52.729Z,6.50
2019-03-16T23:21:21.638Z,7.00
2019-03-16T23:23:50.528Z,7.27
2019-03-16T23:26:19.328Z,5.53
2019-03-16T23:28:48.208Z,5.63
2019-03-16T23:31:17.013Z,5.67
2019-03-16T23:33:45.843Z,9.00
2019-03-16T23:36:14.653Z,5.80
2019-03-16T23:38:43.507Z,6.90
2019-03-16T23:41:12.365Z,11.13
2019-03-16T23:43:41.293Z,4.20
2019-03-16T23:46:10.093Z,9.70
2019-03-16T23:48:38.947Z,11.73
2019-03-16T23:51:07.834Z,9.90
2019-03-16T23:53:36.702Z,13.47
2019-03-16T23:56:05.544Z,10.20
2019-03-16T23:58:34.335Z,14.97
